sensor_id;sensor_type;location;lat;lon;timestamp;temperature;humidity
18868;DHT22;9563;49.240;9.088;2023-04-03T05:02:25;3.10;99.90
18868;DHT22;9563;49.240;9.088;2023-04-03T05:04:52;3.10;99.90
18868;DHT22;9563;49.240;9.088;2023-04-03T05:07:19;3.10;99.90
18868;DHT22;9563;49.240;9.088;2023-04-03T05:09:46;3.10;99.90
18868;DHT22;9563;49.240;9.088;2023-04-03T05:12:13;3.20;99.90
18868;DHT22;9563;49.240;9.088;2023-04-03T05:14:40;3.30;99.90
18868;DHT22;9563;49.240;9.088;2023-04-03T05:17:07;3.40;99.90
18868;DHT22;9563;49.240;9.088;2023-04-03T05:19:35;3.50;99.90
18868;DHT22;9563;49.240;9.088;2023-04-03T05:22:02;3.50;99.90
18868;DHT22;9563;49.240;9.088;2023-04-03T05:24:29;3.60;99.90
18868;DHT22;9563;49.240;9.088;2023-04-03T05:26:56;3.60;99.90
18868;DHT22;9563;49.240;9.088;2023-04-03T05:29:22;3.70;99.90
18868;DHT22;9563;49.240;9.088;2023-04-03T05:31:49;3.70;99.90
18868;DHT22;9563;49.240;9.088;2023-04-03T05:34:16;3.80;99.90
18868;DHT22;9563;49.240;9.088;2023-04-03T05:36:45;3.90;99.90
18868;DHT22;9563;49.240;9.088;2023-04-03T05:39:11;4.00;99.90
18868;DHT22;9563;49.240;9.088;2023-04-03T05:41:38;4.00;99.90
18868;DHT22;9563;49.240;9.088;2023-04-03T05:44:05;4.10;99.90
18868;DHT22;9563;49.240;9.088;2023-04-03T05:46:32;4.10;99.90
18868;DHT22;9563;49.240;9.088;2023-04-03T05:48:59;4.20;99.90
18868;DHT22;9563;49.240;9.088;2023-04-03T05:51:29;4.30;99.90
18868;DHT22;9563;49.240;9.088;2023-04-03T05:54:03;4.30;99.90
18868;DHT22;9563;49.240;9.088;2023-04-03T05:56:32;4.30;99.90
18868;DHT22;9563;49.240;9.088;2023-04-03T05:58:59;4.40;99.90
18868;DHT22;9563;49.240;9.088;2023-04-03T06:01:26;4.50;99.90
18868;DHT22;9563;49.240;9.088;2023-04-03T06:03:53;4.50;99.90
18868;DHT22;9563;49.240;9.088;2023-04-03T06:06:21;4.60;99.90
18868;DHT22;9563;49.240;9.088;2023-04-03T06:08:56;4.80;99.90
18868;DHT22;9563;49.240;9.088;2023-04-03T06:11:50;4.90;99.90
18868;DHT22;9563;49.240;9.088;2023-04-03T06:14:17;5.00;99.90
18868;DHT22;9563;49.240;9.088;2023-04-03T06:16:44;5.10;99.90
18868;DHT22;9563;49.240;9.088;2023-04-03T06:19:12;5.10;99.90
18868;DHT22;9563;49.240;9.088;2023-04-03T06:21:39;5.20;99.90
18868;DHT22;9563;49.240;9.088;2023-04-03T06:24:08;5.30;99.90
18868;DHT22;9563;49.240;9.088;2023-04-03T06:26:37;5.40;99.90
18868;DHT22;9563;49.240;9.088;2023-04-03T06:29:06;5.60;99.90
18868;DHT22;9563;49.240;9.088;2023-04-03T06:31:33;5.60;99.90
18868;DHT22;9563;49.240;9.088;2023-04-03T06:34:01;5.80;99.90
18868;DHT22;9563;49.240;9.088;2023-04-03T06:36:28;5.90;99.90
18868;DHT22;9563;49.240;9.088;2023-04-03T06:38:55;5.90;99.90
18868;DHT22;9563;49.240;9.088;2023-04-03T06:41:22;6.00;99.90
18868;DHT22;9563;49.240;9.088;2023-04-03T06:43:49;6.10;99.90
18868;DHT22;9563;49.240;9.088;2023-04-03T06:46:19;6.20;99.90
18868;DHT22;9563;49.240;9.088;2023-04-03T06:48:46;6.10;99.90
18868;DHT22;9563;49.240;9.088;2023-04-03T06:51:21;6.20;99.90
18868;DHT22;9563;49.240;9.088;2023-04-03T06:53:49;6.20;99.90
18868;DHT22;9563;49.240;9.088;2023-04-03T06:56:17;6.20;99.90
18868;DHT22;9563;49.240;9.088;2023-04-03T06:58:45;6.30;99.90
18868;DHT22;9563;49.240;9.088;2023-04-03T07:01:15;6.30;99.90
18868;DHT22;9563;49.240;9.088;2023-04-03T07:03:44;6.40;99.90
18868;DHT22;9563;49.240;9.088;2023-04-03T07:06:14;6.30;99.90
18868;DHT22;9563;49.240;9.088;2023-04-03T07:08:41;6.40;99.90
18868;DHT22;9563;49.240;9.088;2023-04-03T07:11:09;6.50;99.90
18868;DHT22;9563;49.240;9.088;2023-04-03T07:13:36;6.70;99.90
18868;DHT22;9563;49.240;9.088;2023-04-03T07:16:04;6.80;99.90
18868;DHT22;9563;49.240;9.088;2023-04-03T07:18:32;6.80;99.90
18868;DHT22;9563;49.240;9.088;2023-04-03T07:21:00;6.60;99.90
18868;DHT22;9563;49.240;9.088;2023-04-03T07:23:27;6.80;99.90
18868;DHT22;9563;49.240;9.088;2023-04-03T07:25:55;7.00;99.90
18868;DHT22;9563;49.240;9.088;2023-04-03T07:28:22;7.20;99.90
18868;DHT22;9563;49.240;9.088;2023-04-03T07:30:50;7.50;99.90
18868;DHT22;9563;49.240;9.088;2023-04-03T07:33:21;7.70;99.90
18868;DHT22;9563;49.240;9.088;2023-04-03T07:35:48;8.10;99.90
18868;DHT22;9563;49.240;9.088;2023-04-03T07:38:17;8.30;99.90
18868;DHT22;9563;49.240;9.088;2023-04-03T07:40:46;8.40;99.90
18868;DHT22;9563;49.240;9.088;2023-04-03T07:43:14;8.50;99.90
18868;DHT22;9563;49.240;9.088;2023-04-03T07:45:41;8.70;99.90
18868;DHT22;9563;49.240;9.088;2023-04-03T07:48:09;8.80;99.90
18868;DHT22;9563;49.240;9.088;2023-04-03T07:50:39;8.90;99.90
18868;DHT22;9563;49.240;9.088;2023-04-03T07:53:06;8.90;99.90
18868;DHT22;9563;49.240;9.088;2023-04-03T07:55:35;8.90;99.90
18868;DHT22;9563;49.240;9.088;2023-04-03T07:58:08;9.00;99.90
18868;DHT22;9563;49.240;9.088;2023-04-03T08:00:35;9.00;99.90
18868;DHT22;9563;49.240;9.088;2023-04-03T08:03:02;9.10;99.90
18868;DHT22;9563;49.240;9.088;2023-04-03T08:05:29;9.00;99.90
18868;DHT22;9563;49.240;9.088;2023-04-03T08:07:56;9.30;99.90
18868;DHT22;9563;49.240;9.088;2023-04-03T08:10:23;9.20;99.90
18868;DHT22;9563;49.240;9.088;2023-04-03T08:12:52;9.30;99.90
18868;DHT22;9563;49.240;9.088;2023-04-03T08:15:19;9.50;99.90
18868;DHT22;9563;49.240;9.088;2023-04-03T08:17:46;9.70;99.90
18868;DHT22;9563;49.240;9.088;2023-04-03T08:20:13;9.90;99.90
18868;DHT22;9563;49.240;9.088;2023-04-03T08:22:40;10.20;99.90
18868;DHT22;9563;49.240;9.088;2023-04-03T08:25:07;10.20;99.90
18868;DHT22;9563;49.240;9.088;2023-04-03T08:27:35;10.20;99.90
18868;DHT22;9563;49.240;9.088;2023-04-03T08:30:06;10.00;99.90
18868;DHT22;9563;49.240;9.088;2023-04-03T08:32:33;9.40;99.90
18868;DHT22;9563;49.240;9.088;2023-04-03T08:35:01;8.90;99.90
18868;DHT22;9563;49.240;9.088;2023-04-03T08:37:28;8.50;99.90
18868;DHT22;9563;49.240;9.088;2023-04-03T08:39:55;8.70;99.90
18868;DHT22;9563;49.240;9.088;2023-04-03T08:42:36;9.00;99.90
18868;DHT22;9563;49.240;9.088;2023-04-03T08:45:11;9.50;99.90
18868;DHT22;9563;49.240;9.088;2023-04-03T08:47:42;10.20;99.90
18868;DHT22;9563;49.240;9.088;2023-04-03T08:50:16;10.70;99.90
18868;DHT22;9563;49.240;9.088;2023-04-03T08:52:45;11.20;99.90
18868;DHT22;9563;49.240;9.088;2023-04-03T08:55:22;11.60;98.90
18868;DHT22;9563;49.240;9.088;2023-04-03T08:57:51;12.00;98.60
18868;DHT22;9563;49.240;9.088;2023-04-03T09:00:24;11.90;97.60
18868;DHT22;9563;49.240;9.088;2023-04-03T09:02:53;11.70;97.90
18868;DHT22;9563;49.240;9.088;2023-04-03T09:05:29;11.70;99.20
18868;DHT22;9563;49.240;9.088;2023-04-03T09:08:05;11.50;97.70
18868;DHT22;9563;49.240;9.088;2023-04-03T09:10:34;11.10;97.60
18868;DHT22;9563;49.240;9.088;2023-04-03T09:13:08;10.60;97.90
18868;DHT22;9563;49.240;9.088;2023-04-03T09:15:39;10.10;99.40
18868;DHT22;9563;49.240;9.088;2023-04-03T09:18:13;10.20;99.90
18868;DHT22;9563;49.240;9.088;2023-04-03T09:20:46;10.30;99.50
18868;DHT22;9563;49.240;9.088;2023-04-03T09:23:22;10.30;99.90
18868;DHT22;9563;49.240;9.088;2023-04-03T09:25:53;10.40;99.90
18868;DHT22;9563;49.240;9.088;2023-04-03T09:28:21;11.10;99.90
18868;DHT22;9563;49.240;9.088;2023-04-03T09:30:49;11.70;99.20
18868;DHT22;9563;49.240;9.088;2023-04-03T09:33:17;11.80;98.60
18868;DHT22;9563;49.240;9.088;2023-04-03T09:35:45;11.60;95.10
18868;DHT22;9563;49.240;9.088;2023-04-03T09:38:20;11.70;96.30
18868;DHT22;9563;49.240;9.088;2023-04-03T09:40:49;11.70;95.70
18868;DHT22;9563;49.240;9.088;2023-04-03T09:43:22;11.30;96.60
18868;DHT22;9563;49.240;9.088;2023-04-03T09:45:52;11.60;98.00
18868;DHT22;9563;49.240;9.088;2023-04-03T09:48:21;11.90;96.70
18868;DHT22;9563;49.240;9.088;2023-04-03T09:51:00;11.90;94.80
18868;DHT22;9563;49.240;9.088;2023-04-03T09:53:31;11.40;94.20
18868;DHT22;9563;49.240;9.088;2023-04-03T09:56:00;10.90;95.60
18868;DHT22;9563;49.240;9.088;2023-04-03T09:58:30;10.60;96.70
18868;DHT22;9563;49.240;9.088;2023-04-03T10:01:02;10.50;97.80
18868;DHT22;9563;49.240;9.088;2023-04-03T10:03:31;10.20;97.70
18868;DHT22;9563;49.240;9.088;2023-04-03T10:05:58;10.00;98.60
18868;DHT22;9563;49.240;9.088;2023-04-03T10:08:29;9.80;98.60
18868;DHT22;9563;49.240;9.088;2023-04-03T10:11:12;9.50;99.90
18868;DHT22;9563;49.240;9.088;2023-04-03T10:13:56;9.40;99.90
18868;DHT22;9563;49.240;9.088;2023-04-03T10:16:29;9.40;99.90
18868;DHT22;9563;49.240;9.088;2023-04-03T10:19:22;9.40;99.90
18868;DHT22;9563;49.240;9.088;2023-04-03T10:21:56;9.60;99.90
18868;DHT22;9563;49.240;9.088;2023-04-03T10:24:29;9.50;99.90
18868;DHT22;9563;49.240;9.088;2023-04-03T10:26:59;9.40;99.90
18868;DHT22;9563;49.240;9.088;2023-04-03T10:29:36;9.60;99.90
18868;DHT22;9563;49.240;9.088;2023-04-03T10:32:22;9.80;99.90
18868;DHT22;9563;49.240;9.088;2023-04-03T10:35:00;9.90;99.90
18868;DHT22;9563;49.240;9.088;2023-04-03T10:37:30;10.00;99.90
18868;DHT22;9563;49.240;9.088;2023-04-03T10:40:20;9.80;99.90
18868;DHT22;9563;49.240;9.088;2023-04-03T10:42:53;9.40;99.90
18868;DHT22;9563;49.240;9.088;2023-04-03T10:45:26;9.60;99.90
18868;DHT22;9563;49.240;9.088;2023-04-03T10:48:04;9.70;99.90
18868;DHT22;9563;49.240;9.088;2023-04-03T10:50:43;9.90;99.90
18868;DHT22;9563;49.240;9.088;2023-04-03T10:53:20;10.00;99.90
18868;DHT22;9563;49.240;9.088;2023-04-03T10:55:55;9.80;99.90
18868;DHT22;9563;49.240;9.088;2023-04-03T10:58:30;9.90;99.90
18868;DHT22;9563;49.240;9.088;2023-04-03T11:01:02;10.10;99.90
18868;DHT22;9563;49.240;9.088;2023-04-03T11:03:36;10.10;99.90
18868;DHT22;9563;49.240;9.088;2023-04-03T11:06:07;10.30;99.90
18868;DHT22;9563;49.240;9.088;2023-04-03T11:08:38;10.20;99.70
18868;DHT22;9563;49.240;9.088;2023-04-03T11:11:13;10.00;99.90
18868;DHT22;9563;49.240;9.088;2023-04-03T11:13:43;9.80;99.90
18868;DHT22;9563;49.240;9.088;2023-04-03T11:16:16;9.80;97.80
18868;DHT22;9563;49.240;9.088;2023-04-03T11:18:49;9.80;99.90
18868;DHT22;9563;49.240;9.088;2023-04-03T11:21:21;9.50;99.90
18868;DHT22;9563;49.240;9.088;2023-04-03T11:23:51;9.30;98.10
18868;DHT22;9563;49.240;9.088;2023-04-03T11:26:21;9.10;97.90
18868;DHT22;9563;49.240;9.088;2023-04-03T11:28:52;9.20;97.60
18868;DHT22;9563;49.240;9.088;2023-04-03T11:31:40;9.30;96.20
18868;DHT22;9563;49.240;9.088;2023-04-03T11:34:22;9.00;95.90
18868;DHT22;9563;49.240;9.088;2023-04-03T11:36:54;9.10;97.30
18868;DHT22;9563;49.240;9.088;2023-04-03T11:39:24;9.20;97.60
18868;DHT22;9563;49.240;9.088;2023-04-03T11:41:53;9.20;96.80
18868;DHT22;9563;49.240;9.088;2023-04-03T11:44:38;9.20;98.60
18868;DHT22;9563;49.240;9.088;2023-04-03T11:47:07;9.30;99.10
18868;DHT22;9563;49.240;9.088;2023-04-03T11:49:58;9.40;96.00
18868;DHT22;9563;49.240;9.088;2023-04-03T11:52:57;9.70;97.70
18868;DHT22;9563;49.240;9.088;2023-04-03T11:55:54;9.80;98.00
18868;DHT22;9563;49.240;9.088;2023-04-03T11:58:23;10.00;97.40
18868;DHT22;9563;49.240;9.088;2023-04-03T12:01:01;10.20;96.50
18868;DHT22;9563;49.240;9.088;2023-04-03T12:07:01;10.50;98.60
18868;DHT22;9563;49.240;9.088;2023-04-03T12:12:30;11.80;94.70
18868;DHT22;9563;49.240;9.088;2023-04-03T12:15:23;11.80;91.80
18868;DHT22;9563;49.240;9.088;2023-04-03T12:17:51;11.70;91.30
18868;DHT22;9563;49.240;9.088;2023-04-03T12:23:31;11.20;91.30
18868;DHT22;9563;49.240;9.088;2023-04-03T12:26:02;10.90;92.10
18868;DHT22;9563;49.240;9.088;2023-04-03T12:28:35;10.70;92.80
18868;DHT22;9563;49.240;9.088;2023-04-03T12:31:04;11.00;93.80
18868;DHT22;9563;49.240;9.088;2023-04-03T12:33:38;11.20;91.80
18868;DHT22;9563;49.240;9.088;2023-04-03T12:36:17;12.00;92.20
18868;DHT22;9563;49.240;9.088;2023-04-03T12:39:01;12.40;88.90
18868;DHT22;9563;49.240;9.088;2023-04-03T12:41:36;12.10;89.60
18868;DHT22;9563;49.240;9.088;2023-04-03T12:44:35;11.70;87.00
18868;DHT22;9563;49.240;9.088;2023-04-03T12:47:22;11.30;91.30
18868;DHT22;9563;49.240;9.088;2023-04-03T12:49:50;10.90;90.20
18868;DHT22;9563;49.240;9.088;2023-04-03T12:52:27;10.70;92.00
18868;DHT22;9563;49.240;9.088;2023-04-03T12:54:59;10.40;92.20
18868;DHT22;9563;49.240;9.088;2023-04-03T12:57:29;10.30;92.90
18868;DHT22;9563;49.240;9.088;2023-04-03T12:59:59;10.20;94.00
18868;DHT22;9563;49.240;9.088;2023-04-03T13:02:28;10.10;93.20
18868;DHT22;9563;49.240;9.088;2023-04-03T13:04:57;9.90;92.90
18868;DHT22;9563;49.240;9.088;2023-04-03T13:07:27;9.60;93.60
18868;DHT22;9563;49.240;9.088;2023-04-03T13:10:02;9.50;93.90
18868;DHT22;9563;49.240;9.088;2023-04-03T13:12:30;9.40;94.40
18868;DHT22;9563;49.240;9.088;2023-04-03T13:14:59;9.40;95.30
18868;DHT22;9563;49.240;9.088;2023-04-03T13:17:27;9.70;94.70
18868;DHT22;9563;49.240;9.088;2023-04-03T13:19:54;10.10;94.30
18868;DHT22;9563;49.240;9.088;2023-04-03T13:22:28;10.30;93.30
18868;DHT22;9563;49.240;9.088;2023-04-03T13:25:03;10.10;92.60
18868;DHT22;9563;49.240;9.088;2023-04-03T13:27:32;9.90;92.70
18868;DHT22;9563;49.240;9.088;2023-04-03T13:30:01;9.70;93.00
18868;DHT22;9563;49.240;9.088;2023-04-03T13:32:30;9.60;92.20
18868;DHT22;9563;49.240;9.088;2023-04-03T13:34:58;9.50;93.20
18868;DHT22;9563;49.240;9.088;2023-04-03T13:37:27;10.00;93.10
18868;DHT22;9563;49.240;9.088;2023-04-03T13:40:01;10.40;93.60
18868;DHT22;9563;49.240;9.088;2023-04-03T13:42:30;10.20;90.80
18868;DHT22;9563;49.240;9.088;2023-04-03T13:45:10;10.20;91.60
18868;DHT22;9563;49.240;9.088;2023-04-03T13:47:39;10.70;91.60
18868;DHT22;9563;49.240;9.088;2023-04-03T13:50:21;11.30;85.70
18868;DHT22;9563;49.240;9.088;2023-04-03T13:52:52;11.70;86.80
18868;DHT22;9563;49.240;9.088;2023-04-03T13:55:24;11.60;83.30
18868;DHT22;9563;49.240;9.088;2023-04-03T13:57:55;11.80;83.40
18868;DHT22;9563;49.240;9.088;2023-04-03T14:00:30;12.20;79.00
18868;DHT22;9563;49.240;9.088;2023-04-03T14:02:57;12.30;76.80
18868;DHT22;9563;49.240;9.088;2023-04-03T14:05:25;12.50;79.10
18868;DHT22;9563;49.240;9.088;2023-04-03T14:07:53;12.40;75.40
18868;DHT22;9563;49.240;9.088;2023-04-03T14:10:21;11.90;74.50
18868;DHT22;9563;49.240;9.088;2023-04-03T14:12:48;12.10;77.40
18868;DHT22;9563;49.240;9.088;2023-04-03T14:15:19;12.00;79.80
18868;DHT22;9563;49.240;9.088;2023-04-03T14:17:49;12.10;80.00
18868;DHT22;9563;49.240;9.088;2023-04-03T14:20:21;11.70;78.70
18868;DHT22;9563;49.240;9.088;2023-04-03T14:22:48;11.10;79.70
18868;DHT22;9563;49.240;9.088;2023-04-03T14:25:16;11.10;81.60
18868;DHT22;9563;49.240;9.088;2023-04-03T14:27:48;11.20;77.80
18868;DHT22;9563;49.240;9.088;2023-04-03T14:30:19;11.40;76.20
18868;DHT22;9563;49.240;9.088;2023-04-03T14:32:47;11.90;79.40
18868;DHT22;9563;49.240;9.088;2023-04-03T14:35:14;12.20;78.60
18868;DHT22;9563;49.240;9.088;2023-04-03T14:37:41;12.50;79.10
18868;DHT22;9563;49.240;9.088;2023-04-03T14:40:13;12.90;75.70
18868;DHT22;9563;49.240;9.088;2023-04-03T14:42:40;12.70;73.20
18868;DHT22;9563;49.240;9.088;2023-04-03T14:45:12;12.30;74.10
18868;DHT22;9563;49.240;9.088;2023-04-03T14:47:42;11.90;73.70
18868;DHT22;9563;49.240;9.088;2023-04-03T14:50:15;11.90;73.90
18868;DHT22;9563;49.240;9.088;2023-04-03T14:52:43;12.10;74.40
18868;DHT22;9563;49.240;9.088;2023-04-03T14:55:12;12.30;75.00
18868;DHT22;9563;49.240;9.088;2023-04-03T14:57:40;12.80;74.70
18868;DHT22;9563;49.240;9.088;2023-04-03T15:00:12;12.90;77.50
18868;DHT22;9563;49.240;9.088;2023-04-03T15:02:39;12.70;72.60
18868;DHT22;9563;49.240;9.088;2023-04-03T15:05:09;12.10;74.80
18868;DHT22;9563;49.240;9.088;2023-04-03T15:07:38;11.50;76.60
18868;DHT22;9563;49.240;9.088;2023-04-03T15:10:16;11.00;77.00
18868;DHT22;9563;49.240;9.088;2023-04-03T15:12:44;10.70;78.60
18868;DHT22;9563;49.240;9.088;2023-04-03T15:15:13;10.80;80.20
18868;DHT22;9563;49.240;9.088;2023-04-03T15:17:41;11.10;80.50
18868;DHT22;9563;49.240;9.088;2023-04-03T15:20:13;11.40;77.80
18868;DHT22;9563;49.240;9.088;2023-04-03T15:22:40;11.80;78.50
18868;DHT22;9563;49.240;9.088;2023-04-03T15:25:08;12.00;77.10
18868;DHT22;9563;49.240;9.088;2023-04-03T15:27:35;12.20;75.80
18868;DHT22;9563;49.240;9.088;2023-04-03T15:33:03;11.50;73.80
18868;DHT22;9563;49.240;9.088;2023-04-03T15:35:30;10.90;75.90
18868;DHT22;9563;49.240;9.088;2023-04-03T15:38:02;10.70;78.70
18868;DHT22;9563;49.240;9.088;2023-04-03T15:40:32;10.60;77.70
18868;DHT22;9563;49.240;9.088;2023-04-03T15:43:17;10.60;78.40
18868;DHT22;9563;49.240;9.088;2023-04-03T15:45:50;10.70;79.40
18868;DHT22;9563;49.240;9.088;2023-04-03T15:48:31;10.70;78.10
18868;DHT22;9563;49.240;9.088;2023-04-03T15:51:02;10.70;78.30
18868;DHT22;9563;49.240;9.088;2023-04-03T15:53:46;10.80;79.40
18868;DHT22;9563;49.240;9.088;2023-04-03T15:56:17;10.80;79.50
18868;DHT22;9563;49.240;9.088;2023-04-03T15:58:44;10.80;79.50
18868;DHT22;9563;49.240;9.088;2023-04-03T16:01:11;10.70;76.90
18868;DHT22;9563;49.240;9.088;2023-04-03T16:03:41;10.60;79.00
18868;DHT22;9563;49.240;9.088;2023-04-03T16:06:10;10.40;78.10
18868;DHT22;9563;49.240;9.088;2023-04-03T16:08:37;10.20;78.80
18868;DHT22;9563;49.240;9.088;2023-04-03T16:11:05;10.30;78.20
18868;DHT22;9563;49.240;9.088;2023-04-03T16:13:32;10.10;78.30
18868;DHT22;9563;49.240;9.088;2023-04-03T16:16:00;10.10;78.90
18868;DHT22;9563;49.240;9.088;2023-04-03T16:18:27;10.20;79.90
18868;DHT22;9563;49.240;9.088;2023-04-03T16:20:56;10.20;77.00
18868;DHT22;9563;49.240;9.088;2023-04-03T16:23:23;10.20;78.30
18868;DHT22;9563;49.240;9.088;2023-04-03T16:25:50;10.20;79.80
18868;DHT22;9563;49.240;9.088;2023-04-03T16:28:18;10.20;79.50
18868;DHT22;9563;49.240;9.088;2023-04-03T16:30:45;10.30;78.20
18868;DHT22;9563;49.240;9.088;2023-04-03T16:33:26;10.30;75.00
18868;DHT22;9563;49.240;9.088;2023-04-03T16:35:58;10.30;75.80
18868;DHT22;9563;49.240;9.088;2023-04-03T16:38:25;10.30;74.90
18868;DHT22;9563;49.240;9.088;2023-04-03T16:40:52;10.30;76.20
18868;DHT22;9563;49.240;9.088;2023-04-03T16:43:22;10.40;75.10
18868;DHT22;9563;49.240;9.088;2023-04-03T16:45:49;10.40;76.90
18868;DHT22;9563;49.240;9.088;2023-04-03T16:48:16;10.40;76.30
18868;DHT22;9563;49.240;9.088;2023-04-03T16:50:49;10.30;76.10
18868;DHT22;9563;49.240;9.088;2023-04-03T16:53:27;10.10;75.90
18868;DHT22;9563;49.240;9.088;2023-04-03T16:56:03;10.00;75.60
18868;DHT22;9563;49.240;9.088;2023-04-03T16:58:30;9.80;75.80
18868;DHT22;9563;49.240;9.088;2023-04-03T17:00:57;9.70;74.30
18868;DHT22;9563;49.240;9.088;2023-04-03T17:03:24;9.50;74.20
18868;DHT22;9563;49.240;9.088;2023-04-03T17:05:51;9.50;75.60
18868;DHT22;9563;49.240;9.088;2023-04-03T17:08:19;9.40;77.00
18868;DHT22;9563;49.240;9.088;2023-04-03T17:10:46;9.30;77.70
18868;DHT22;9563;49.240;9.088;2023-04-03T17:13:16;9.20;76.90
18868;DHT22;9563;49.240;9.088;2023-04-03T17:15:42;9.10;77.20
18868;DHT22;9563;49.240;9.088;2023-04-03T17:18:09;8.90;77.60
18868;DHT22;9563;49.240;9.088;2023-04-03T17:20:36;8.70;78.50
18868;DHT22;9563;49.240;9.088;2023-04-03T17:23:03;8.60;80.00
18868;DHT22;9563;49.240;9.088;2023-04-03T17:25:32;8.50;80.20
18868;DHT22;9563;49.240;9.088;2023-04-03T17:27:59;8.40;82.20
18868;DHT22;9563;49.240;9.088;2023-04-03T17:30:26;8.30;81.90
18868;DHT22;9563;49.240;9.088;2023-04-03T17:32:52;8.10;81.20
18868;DHT22;9563;49.240;9.088;2023-04-03T17:35:19;8.00;82.20
18868;DHT22;9563;49.240;9.088;2023-04-03T17:37:47;7.80;83.90
18868;DHT22;9563;49.240;9.088;2023-04-03T17:40:14;7.80;85.10
18868;DHT22;9563;49.240;9.088;2023-04-03T17:42:43;7.80;85.70
18868;DHT22;9563;49.240;9.088;2023-04-03T17:45:10;7.70;86.40
18868;DHT22;9563;49.240;9.088;2023-04-03T17:47:37;7.60;87.90
18868;DHT22;9563;49.240;9.088;2023-04-03T17:50:05;7.50;88.50
18868;DHT22;9563;49.240;9.088;2023-04-03T17:52:32;7.40;89.40
18868;DHT22;9563;49.240;9.088;2023-04-03T17:54:59;7.30;87.50
18868;DHT22;9563;49.240;9.088;2023-04-03T17:57:26;7.30;89.50
18868;DHT22;9563;49.240;9.088;2023-04-03T17:59:54;7.20;88.20
18868;DHT22;9563;49.240;9.088;2023-04-03T18:02:21;7.20;88.70
18868;DHT22;9563;49.240;9.088;2023-04-03T18:04:50;7.00;89.50
18868;DHT22;9563;49.240;9.088;2023-04-03T18:07:17;7.00;90.40
18868;DHT22;9563;49.240;9.088;2023-04-03T18:09:45;6.90;90.50
18868;DHT22;9563;49.240;9.088;2023-04-03T18:12:13;7.10;91.10
18868;DHT22;9563;49.240;9.088;2023-04-03T18:14:40;7.10;90.80
18868;DHT22;9563;49.240;9.088;2023-04-03T18:17:08;7.20;91.00
18868;DHT22;9563;49.240;9.088;2023-04-03T18:19:35;7.10;90.40
18868;DHT22;9563;49.240;9.088;2023-04-03T18:22:04;7.20;90.90
18868;DHT22;9563;49.240;9.088;2023-04-03T18:24:32;7.10;91.40
18868;DHT22;9563;49.240;9.088;2023-04-03T18:27:02;7.00;91.10
18868;DHT22;9563;49.240;9.088;2023-04-03T18:29:32;7.00;91.30
18868;DHT22;9563;49.240;9.088;2023-04-03T18:32:01;7.00;91.90
18868;DHT22;9563;49.240;9.088;2023-04-03T18:34:31;6.90;91.60
18868;DHT22;9563;49.240;9.088;2023-04-03T18:36:58;6.90;91.30
18868;DHT22;9563;49.240;9.088;2023-04-03T18:39:26;6.90;91.30
18868;DHT22;9563;49.240;9.088;2023-04-03T18:41:53;6.80;91.90
18868;DHT22;9563;49.240;9.088;2023-04-03T18:44:22;6.60;91.80
18868;DHT22;9563;49.240;9.088;2023-04-03T18:46:50;6.50;92.00
18868;DHT22;9563;49.240;9.088;2023-04-03T18:49:18;6.30;92.40
18868;DHT22;9563;49.240;9.088;2023-04-03T18:51:47;6.20;93.00
18868;DHT22;9563;49.240;9.088;2023-04-03T18:54:14;6.10;93.60
18868;DHT22;9563;49.240;9.088;2023-04-03T18:56:41;6.00;93.70
18868;DHT22;9563;49.240;9.088;2023-04-03T18:59:07;6.00;94.40
18868;DHT22;9563;49.240;9.088;2023-04-03T19:01:34;6.00;94.20
18868;DHT22;9563;49.240;9.088;2023-04-03T19:04:02;6.00;95.00
18868;DHT22;9563;49.240;9.088;2023-04-03T19:06:29;5.80;94.40
18868;DHT22;9563;49.240;9.088;2023-04-03T19:08:59;5.80;94.80
18868;DHT22;9563;49.240;9.088;2023-04-03T19:11:26;5.80;94.80
18868;DHT22;9563;49.240;9.088;2023-04-03T19:13:53;5.70;94.70
18868;DHT22;9563;49.240;9.088;2023-04-03T19:16:20;5.70;95.30
18868;DHT22;9563;49.240;9.088;2023-04-03T19:18:46;5.70;95.50
18868;DHT22;9563;49.240;9.088;2023-04-03T19:21:13;5.60;95.40
18868;DHT22;9563;49.240;9.088;2023-04-03T19:23:41;5.70;96.00
18868;DHT22;9563;49.240;9.088;2023-04-03T19:26:12;5.60;95.60
18868;DHT22;9563;49.240;9.088;2023-04-03T19:28:39;5.60;95.80
18868;DHT22;9563;49.240;9.088;2023-04-03T19:31:10;5.60;95.60
18868;DHT22;9563;49.240;9.088;2023-04-03T19:33:37;5.50;96.40
18868;DHT22;9563;49.240;9.088;2023-04-03T19:36:06;5.50;96.80
18868;DHT22;9563;49.240;9.088;2023-04-03T19:38:33;5.40;96.40
18868;DHT22;9563;49.240;9.088;2023-04-03T19:41:00;5.40;97.20
18868;DHT22;9563;49.240;9.088;2023-04-03T19:43:30;5.30;97.60
18868;DHT22;9563;49.240;9.088;2023-04-03T19:45:57;5.40;98.00
18868;DHT22;9563;49.240;9.088;2023-04-03T19:48:24;5.40;97.70
18868;DHT22;9563;49.240;9.088;2023-04-03T19:50:51;5.30;97.80
18868;DHT22;9563;49.240;9.088;2023-04-03T19:53:17;5.20;98.70
18868;DHT22;9563;49.240;9.088;2023-04-03T19:55:47;5.20;98.90
18868;DHT22;9563;49.240;9.088;2023-04-03T19:58:14;5.20;99.10
18868;DHT22;9563;49.240;9.088;2023-04-03T20:00:42;5.10;99.30
18868;DHT22;9563;49.240;9.088;2023-04-03T20:03:09;5.10;99.90
18868;DHT22;9563;49.240;9.088;2023-04-03T20:05:37;5.10;99.90
18868;DHT22;9563;49.240;9.088;2023-04-03T20:08:04;5.10;99.90
18868;DHT22;9563;49.240;9.088;2023-04-03T20:10:31;5.00;99.90
18868;DHT22;9563;49.240;9.088;2023-04-03T20:12:59;5.10;99.90
18868;DHT22;9563;49.240;9.088;2023-04-03T20:15:26;5.10;99.90
18868;DHT22;9563;49.240;9.088;2023-04-03T20:18:05;5.00;99.90
18868;DHT22;9563;49.240;9.088;2023-04-03T20:20:32;5.00;99.90
18868;DHT22;9563;49.240;9.088;2023-04-03T20:23:00;5.00;99.90
18868;DHT22;9563;49.240;9.088;2023-04-03T20:25:26;5.00;99.90
18868;DHT22;9563;49.240;9.088;2023-04-03T20:27:53;4.90;99.90
18868;DHT22;9563;49.240;9.088;2023-04-03T20:30:20;4.90;99.90
18868;DHT22;9563;49.240;9.088;2023-04-03T20:32:48;4.80;99.90
18868;DHT22;9563;49.240;9.088;2023-04-03T20:35:16;4.80;99.90
18868;DHT22;9563;49.240;9.088;2023-04-03T20:37:44;4.80;99.90
18868;DHT22;9563;49.240;9.088;2023-04-03T20:40:12;4.70;99.90
18868;DHT22;9563;49.240;9.088;2023-04-03T20:42:39;4.70;99.90
18868;DHT22;9563;49.240;9.088;2023-04-03T20:45:07;4.70;99.90
18868;DHT22;9563;49.240;9.088;2023-04-03T20:47:34;4.60;99.90
18868;DHT22;9563;49.240;9.088;2023-04-03T20:50:01;4.60;99.90
18868;DHT22;9563;49.240;9.088;2023-04-03T20:52:29;4.60;99.90
18868;DHT22;9563;49.240;9.088;2023-04-03T20:54:57;4.50;99.90
18868;DHT22;9563;49.240;9.088;2023-04-03T20:57:24;4.50;99.90
18868;DHT22;9563;49.240;9.088;2023-04-03T20:59:51;4.40;99.90
18868;DHT22;9563;49.240;9.088;2023-04-03T21:02:17;4.40;99.90
18868;DHT22;9563;49.240;9.088;2023-04-03T21:04:50;4.40;99.90
18868;DHT22;9563;49.240;9.088;2023-04-03T21:19:12;4.30;99.90
18868;DHT22;9563;49.240;9.088;2023-04-03T21:21:40;4.20;99.90
18868;DHT22;9563;49.240;9.088;2023-04-03T21:24:08;4.20;99.90
18868;DHT22;9563;49.240;9.088;2023-04-03T21:26:37;4.20;99.90
18868;DHT22;9563;49.240;9.088;2023-04-03T21:29:05;4.20;99.90
